sensor_id;sensor_type;location;lat;lon;timestamp;pressure;altitude;pressure_sealevel;temperature;humidity
57050;BME280;42935;50.966;16.992;2023-06-22T00:00:17;101688.32;;;21.31;100.00
57050;BME280;42935;50.966;16.992;2023-06-22T00:03:40;101672.45;;;21.14;100.00
57050;BME280;42935;50.966;16.992;2023-06-22T00:07:01;101676.18;;;21.35;100.00
57050;BME280;42935;50.966;16.992;2023-06-22T00:10:21;101674.63;;;21.48;100.00
57050;BME280;42935;50.966;16.992;2023-06-22T00:13:37;101685.58;;;21.49;100.00
57050;BME280;42935;50.966;16.992;2023-06-22T00:16:52;101686.84;;;21.41;100.00
57050;BME280;42935;50.966;16.992;2023-06-22T00:20:12;101678.22;;;21.35;100.00
57050;BME280;42935;50.966;16.992;2023-06-22T00:23:28;101678.03;;;21.27;100.00
57050;BME280;42935;50.966;16.992;2023-06-22T00:26:59;101692.75;;;21.14;100.00
57050;BME280;42935;50.966;16.992;2023-06-22T00:30:16;101692.29;;;20.93;100.00
57050;BME280;42935;50.966;16.992;2023-06-22T00:33:33;101693.91;;;20.70;100.00
57050;BME280;42935;50.966;16.992;2023-06-22T00:36:50;101708.97;;;20.71;100.00
57050;BME280;42935;50.966;16.992;2023-06-22T00:40:12;101717.89;;;20.70;100.00
57050;BME280;42935;50.966;16.992;2023-06-22T00:43:30;101712.88;;;20.41;100.00
57050;BME280;42935;50.966;16.992;2023-06-22T00:46:54;101723.13;;;20.44;100.00
57050;BME280;42935;50.966;16.992;2023-06-22T00:50:08;101726.12;;;20.28;100.00
57050;BME280;42935;50.966;16.992;2023-06-22T00:53:30;101732.34;;;20.27;100.00
57050;BME280;42935;50.966;16.992;2023-06-22T00:56:56;101727.10;;;20.00;100.00
57050;BME280;42935;50.966;16.992;2023-06-22T01:00:13;101716.54;;;19.98;100.00
57050;BME280;42935;50.966;16.992;2023-06-22T01:03:39;101739.33;;;20.13;100.00
57050;BME280;42935;50.966;16.992;2023-06-22T01:07:03;101746.95;;;19.82;100.00
57050;BME280;42935;50.966;16.992;2023-06-22T01:17:25;101744.69;;;19.52;100.00
57050;BME280;42935;50.966;16.992;2023-06-22T01:20:43;101735.34;;;19.62;100.00
57050;BME280;42935;50.966;16.992;2023-06-22T01:30:58;101751.26;;;19.81;100.00
57050;BME280;42935;50.966;16.992;2023-06-22T01:34:30;101759.42;;;19.98;100.00
57050;BME280;42935;50.966;16.992;2023-06-22T01:37:51;101760.16;;;19.91;100.00
57050;BME280;42935;50.966;16.992;2023-06-22T01:41:08;101759.15;;;19.85;100.00
57050;BME280;42935;50.966;16.992;2023-06-22T01:44:24;101760.86;;;19.93;100.00
57050;BME280;42935;50.966;16.992;2023-06-22T01:47:47;101764.07;;;19.81;100.00
57050;BME280;42935;50.966;16.992;2023-06-22T01:51:12;101760.20;;;19.87;100.00
57050;BME280;42935;50.966;16.992;2023-06-22T01:54:33;101744.68;;;19.79;100.00
57050;BME280;42935;50.966;16.992;2023-06-22T01:57:54;101753.45;;;19.92;100.00
57050;BME280;42935;50.966;16.992;2023-06-22T02:01:12;101758.63;;;19.78;100.00
57050;BME280;42935;50.966;16.992;2023-06-22T02:08:00;101743.37;;;19.59;100.00
57050;BME280;42935;50.966;16.992;2023-06-22T02:11:20;101746.38;;;19.73;100.00
57050;BME280;42935;50.966;16.992;2023-06-22T02:14:39;101743.91;;;19.79;100.00
57050;BME280;42935;50.966;16.992;2023-06-22T02:18:04;101737.64;;;19.76;100.00
57050;BME280;42935;50.966;16.992;2023-06-22T02:21:23;101731.34;;;19.59;100.00
57050;BME280;42935;50.966;16.992;2023-06-22T02:24:40;101746.65;;;19.78;100.00
57050;BME280;42935;50.966;16.992;2023-06-22T02:27:53;101750.56;;;19.81;100.00
57050;BME280;42935;50.966;16.992;2023-06-22T02:31:10;101744.51;;;19.64;100.00
57050;BME280;42935;50.966;16.992;2023-06-22T02:34:32;101750.14;;;19.55;100.00
57050;BME280;42935;50.966;16.992;2023-06-22T02:37:47;101757.10;;;19.52;100.00
57050;BME280;42935;50.966;16.992;2023-06-22T02:41:05;101756.25;;;19.66;100.00
57050;BME280;42935;50.966;16.992;2023-06-22T02:44:23;101747.61;;;19.62;100.00
57050;BME280;42935;50.966;16.992;2023-06-22T02:47:44;101750.54;;;19.70;100.00
57050;BME280;42935;50.966;16.992;2023-06-22T02:51:00;101756.04;;;19.63;100.00
57050;BME280;42935;50.966;16.992;2023-06-22T02:54:17;101758.32;;;19.63;100.00
57050;BME280;42935;50.966;16.992;2023-06-22T02:57:38;101755.14;;;19.61;100.00
57050;BME280;42935;50.966;16.992;2023-06-22T03:01:01;101762.74;;;19.58;100.00
57050;BME280;42935;50.966;16.992;2023-06-22T03:04:24;101764.76;;;19.46;100.00
57050;BME280;42935;50.966;16.992;2023-06-22T03:07:41;101763.33;;;19.42;100.00
57050;BME280;42935;50.966;16.992;2023-06-22T03:10:58;101764.77;;;19.36;100.00
57050;BME280;42935;50.966;16.992;2023-06-22T03:14:19;101771.79;;;19.39;100.00
57050;BME280;42935;50.966;16.992;2023-06-22T03:17:44;101781.97;;;19.32;100.00
57050;BME280;42935;50.966;16.992;2023-06-22T03:21:02;101788.81;;;19.03;100.00
57050;BME280;42935;50.966;16.992;2023-06-22T03:24:19;101781.17;;;18.80;100.00
57050;BME280;42935;50.966;16.992;2023-06-22T03:27:32;101789.76;;;18.73;100.00
57050;BME280;42935;50.966;16.992;2023-06-22T03:30:49;101790.13;;;18.86;100.00
57050;BME280;42935;50.966;16.992;2023-06-22T03:34:08;101787.85;;;18.88;100.00
57050;BME280;42935;50.966;16.992;2023-06-22T03:37:29;101787.27;;;18.81;100.00
57050;BME280;42935;50.966;16.992;2023-06-22T03:40:46;101786.56;;;19.04;100.00
57050;BME280;42935;50.966;16.992;2023-06-22T03:44:03;101791.88;;;19.19;100.00
57050;BME280;42935;50.966;16.992;2023-06-22T03:47:20;101787.59;;;19.30;100.00
57050;BME280;42935;50.966;16.992;2023-06-22T03:50:37;101798.86;;;19.45;100.00
57050;BME280;42935;50.966;16.992;2023-06-22T03:53:52;101796.95;;;19.38;100.00
57050;BME280;42935;50.966;16.992;2023-06-22T03:57:16;101806.22;;;19.53;100.00
57050;BME280;42935;50.966;16.992;2023-06-22T04:00:37;101800.38;;;19.46;100.00
57050;BME280;42935;50.966;16.992;2023-06-22T04:03:52;101802.75;;;19.49;100.00
57050;BME280;42935;50.966;16.992;2023-06-22T04:07:15;101804.87;;;19.63;100.00
57050;BME280;42935;50.966;16.992;2023-06-22T04:10:37;101794.85;;;19.61;100.00
57050;BME280;42935;50.966;16.992;2023-06-22T04:13:54;101792.66;;;19.63;100.00
57050;BME280;42935;50.966;16.992;2023-06-22T04:17:21;101800.90;;;19.72;100.00
57050;BME280;42935;50.966;16.992;2023-06-22T04:20:38;101806.30;;;19.92;100.00
57050;BME280;42935;50.966;16.992;2023-06-22T04:23:53;101817.59;;;20.06;100.00
57050;BME280;42935;50.966;16.992;2023-06-22T04:27:14;101816.93;;;20.17;100.00
57050;BME280;42935;50.966;16.992;2023-06-22T04:30:33;101819.40;;;20.26;100.00
57050;BME280;42935;50.966;16.992;2023-06-22T04:33:59;101820.37;;;20.39;100.00
57050;BME280;42935;50.966;16.992;2023-06-22T04:37:21;101829.84;;;20.46;100.00
57050;BME280;42935;50.966;16.992;2023-06-22T04:40:39;101824.60;;;20.45;100.00
57050;BME280;42935;50.966;16.992;2023-06-22T04:44:00;101838.14;;;20.62;100.00
57050;BME280;42935;50.966;16.992;2023-06-22T04:47:23;101843.02;;;20.81;100.00
57050;BME280;42935;50.966;16.992;2023-06-22T04:50:38;101845.87;;;20.88;100.00
57050;BME280;42935;50.966;16.992;2023-06-22T04:53:59;101842.74;;;20.92;100.00
57050;BME280;42935;50.966;16.992;2023-06-22T04:57:25;101846.75;;;21.10;100.00
57050;BME280;42935;50.966;16.992;2023-06-22T05:00:51;101831.38;;;21.10;100.00
57050;BME280;42935;50.966;16.992;2023-06-22T05:04:08;101850.53;;;21.42;100.00
57050;BME280;42935;50.966;16.992;2023-06-22T05:07:29;101842.12;;;21.45;100.00
57050;BME280;42935;50.966;16.992;2023-06-22T05:10:46;101851.95;;;21.66;100.00
57050;BME280;42935;50.966;16.992;2023-06-22T05:14:09;101842.84;;;21.81;100.00
57050;BME280;42935;50.966;16.992;2023-06-22T05:17:26;101843.87;;;22.02;100.00
57050;BME280;42935;50.966;16.992;2023-06-22T05:20:43;101835.74;;;22.13;100.00
57050;BME280;42935;50.966;16.992;2023-06-22T05:23:58;101824.75;;;22.09;100.00
57050;BME280;42935;50.966;16.992;2023-06-22T05:27:18;101832.28;;;22.29;100.00
57050;BME280;42935;50.966;16.992;2023-06-22T05:30:40;101836.50;;;22.25;100.00
57050;BME280;42935;50.966;16.992;2023-06-22T05:33:57;101838.19;;;22.18;100.00
57050;BME280;42935;50.966;16.992;2023-06-22T05:37:19;101833.41;;;22.27;100.00
57050;BME280;42935;50.966;16.992;2023-06-22T05:40:38;101844.28;;;22.05;100.00
57050;BME280;42935;50.966;16.992;2023-06-22T05:43:54;101832.10;;;22.30;100.00
57050;BME280;42935;50.966;16.992;2023-06-22T05:47:19;101841.55;;;22.60;100.00
57050;BME280;42935;50.966;16.992;2023-06-22T05:50:40;101834.30;;;22.65;100.00
57050;BME280;42935;50.966;16.992;2023-06-22T05:54:01;101828.73;;;22.61;100.00
57050;BME280;42935;50.966;16.992;2023-06-22T05:57:22;101830.80;;;22.27;100.00
57050;BME280;42935;50.966;16.992;2023-06-22T06:00:40;101842.23;;;22.30;100.00
57050;BME280;42935;50.966;16.992;2023-06-22T06:04:05;101842.50;;;22.44;100.00
57050;BME280;42935;50.966;16.992;2023-06-22T06:07:27;101844.54;;;22.52;100.00
57050;BME280;42935;50.966;16.992;2023-06-22T06:10:39;101845.42;;;22.73;100.00
57050;BME280;42935;50.966;16.992;2023-06-22T06:13:56;101853.87;;;22.87;100.00
57050;BME280;42935;50.966;16.992;2023-06-22T06:17:15;101850.26;;;22.87;100.00
57050;BME280;42935;50.966;16.992;2023-06-22T06:20:35;101854.35;;;23.04;100.00
57050;BME280;42935;50.966;16.992;2023-06-22T06:23:56;101851.42;;;22.99;100.00
57050;BME280;42935;50.966;16.992;2023-06-22T06:27:18;101859.85;;;23.16;100.00
57050;BME280;42935;50.966;16.992;2023-06-22T06:30:36;101850.95;;;23.16;100.00
57050;BME280;42935;50.966;16.992;2023-06-22T06:34:01;101858.48;;;23.17;100.00
57050;BME280;42935;50.966;16.992;2023-06-22T06:37:22;101857.77;;;23.35;100.00
57050;BME280;42935;50.966;16.992;2023-06-22T06:40:39;101855.69;;;23.47;100.00
57050;BME280;42935;50.966;16.992;2023-06-22T06:43:54;101854.84;;;23.24;100.00
57050;BME280;42935;50.966;16.992;2023-06-22T06:47:15;101863.50;;;23.41;100.00
57050;BME280;42935;50.966;16.992;2023-06-22T06:50:30;101856.45;;;23.81;100.00
57050;BME280;42935;50.966;16.992;2023-06-22T06:53:49;101863.61;;;23.74;100.00
57050;BME280;42935;50.966;16.992;2023-06-22T06:57:02;101856.42;;;23.79;100.00
57050;BME280;42935;50.966;16.992;2023-06-22T07:00:20;101868.70;;;24.12;100.00
57050;BME280;42935;50.966;16.992;2023-06-22T07:03:38;101882.08;;;24.37;96.52
57050;BME280;42935;50.966;16.992;2023-06-22T07:06:53;101876.48;;;24.67;93.77
57050;BME280;42935;50.966;16.992;2023-06-22T07:10:10;101882.82;;;24.92;94.91
57050;BME280;42935;50.966;16.992;2023-06-22T07:13:25;101876.87;;;25.33;89.71
57050;BME280;42935;50.966;16.992;2023-06-22T07:16:42;101884.39;;;25.40;89.69
57050;BME280;42935;50.966;16.992;2023-06-22T07:20:06;101884.17;;;25.60;86.52
57050;BME280;42935;50.966;16.992;2023-06-22T07:23:27;101880.82;;;25.76;80.85
57050;BME280;42935;50.966;16.992;2023-06-22T07:26:51;101879.91;;;25.76;86.24
57050;BME280;42935;50.966;16.992;2023-06-22T07:30:11;101882.11;;;26.26;82.67
57050;BME280;42935;50.966;16.992;2023-06-22T07:33:32;101884.41;;;26.13;80.62
57050;BME280;42935;50.966;16.992;2023-06-22T07:36:57;101863.89;;;26.19;83.71
57050;BME280;42935;50.966;16.992;2023-06-22T07:40:14;101883.95;;;25.76;89.97
57050;BME280;42935;50.966;16.992;2023-06-22T07:43:31;101875.48;;;25.88;89.93
57050;BME280;42935;50.966;16.992;2023-06-22T07:46:52;101879.66;;;26.26;83.08
57050;BME280;42935;50.966;16.992;2023-06-22T07:50:10;101879.06;;;26.78;79.03
57050;BME280;42935;50.966;16.992;2023-06-22T07:53:30;101879.08;;;27.00;82.95
57050;BME280;42935;50.966;16.992;2023-06-22T07:56:47;101860.07;;;27.34;78.59
57050;BME280;42935;50.966;16.992;2023-06-22T08:00:09;101861.64;;;26.81;80.53
57050;BME280;42935;50.966;16.992;2023-06-22T08:03:36;101862.41;;;26.64;84.89
57050;BME280;42935;50.966;16.992;2023-06-22T08:06:55;101852.25;;;26.58;81.33
57050;BME280;42935;50.966;16.992;2023-06-22T08:10:10;101863.47;;;26.19;84.79
57050;BME280;42935;50.966;16.992;2023-06-22T08:13:35;101867.65;;;25.82;85.17
57050;BME280;42935;50.966;16.992;2023-06-22T08:16:56;101855.11;;;26.54;86.21
57050;BME280;42935;50.966;16.992;2023-06-22T08:20:17;101854.62;;;27.09;78.61
57050;BME280;42935;50.966;16.992;2023-06-22T08:23:34;101851.55;;;27.88;76.05
57050;BME280;42935;50.966;16.992;2023-06-22T08:26:53;101840.56;;;27.79;72.16
57050;BME280;42935;50.966;16.992;2023-06-22T08:30:11;101842.16;;;27.72;75.91
57050;BME280;42935;50.966;16.992;2023-06-22T08:33:24;101834.22;;;28.23;70.99
57050;BME280;42935;50.966;16.992;2023-06-22T08:36:45;101839.48;;;27.80;74.47
57050;BME280;42935;50.966;16.992;2023-06-22T08:40:09;101818.69;;;26.85;86.35
57050;BME280;42935;50.966;16.992;2023-06-22T08:43:26;101830.05;;;27.65;85.47
57050;BME280;42935;50.966;16.992;2023-06-22T08:46:44;101838.65;;;27.68;79.32
57050;BME280;42935;50.966;16.992;2023-06-22T08:50:15;101834.73;;;28.05;76.23
57050;BME280;42935;50.966;16.992;2023-06-22T08:53:36;101829.21;;;27.33;82.15
57050;BME280;42935;50.966;16.992;2023-06-22T08:56:57;101830.53;;;28.02;74.24
57050;BME280;42935;50.966;16.992;2023-06-22T09:00:15;101831.64;;;27.65;79.09
57050;BME280;42935;50.966;16.992;2023-06-22T09:03:35;101838.03;;;27.32;79.53
57050;BME280;42935;50.966;16.992;2023-06-22T09:06:57;101822.78;;;28.05;75.84
57050;BME280;42935;50.966;16.992;2023-06-22T09:10:14;101836.57;;;27.43;76.38
57050;BME280;42935;50.966;16.992;2023-06-22T09:13:38;101821.60;;;27.35;80.93
57050;BME280;42935;50.966;16.992;2023-06-22T09:16:59;101819.05;;;28.18;69.81
57050;BME280;42935;50.966;16.992;2023-06-22T09:20:16;101827.82;;;28.31;67.59
57050;BME280;42935;50.966;16.992;2023-06-22T09:23:31;101833.15;;;27.76;69.99
57050;BME280;42935;50.966;16.992;2023-06-22T09:26:46;101828.43;;;27.91;70.22
57050;BME280;42935;50.966;16.992;2023-06-22T09:30:08;101828.05;;;28.97;64.30
57050;BME280;42935;50.966;16.992;2023-06-22T09:33:26;101825.85;;;29.73;64.14
57050;BME280;42935;50.966;16.992;2023-06-22T09:36:44;101821.66;;;29.94;61.28
57050;BME280;42935;50.966;16.992;2023-06-22T09:40:07;101822.47;;;30.13;60.70
57050;BME280;42935;50.966;16.992;2023-06-22T09:43:28;101819.20;;;30.60;58.27
57050;BME280;42935;50.966;16.992;2023-06-22T09:46:48;101812.27;;;31.22;55.85
57050;BME280;42935;50.966;16.992;2023-06-22T09:50:06;101816.73;;;30.63;56.86
57050;BME280;42935;50.966;16.992;2023-06-22T09:53:23;101816.70;;;29.48;62.03
57050;BME280;42935;50.966;16.992;2023-06-22T09:56:40;101818.56;;;28.83;68.15
57050;BME280;42935;50.966;16.992;2023-06-22T10:00:03;101770.28;;;28.34;64.62
57050;BME280;42935;50.966;16.992;2023-06-22T10:03:24;101819.05;;;28.63;64.90
57050;BME280;42935;50.966;16.992;2023-06-22T10:06:45;101812.07;;;28.48;64.00
57050;BME280;42935;50.966;16.992;2023-06-22T10:10:07;101808.79;;;29.43;62.37
57050;BME280;42935;50.966;16.992;2023-06-22T10:13:24;101802.98;;;29.45;64.93
57050;BME280;42935;50.966;16.992;2023-06-22T10:16:41;101805.84;;;28.74;64.61
57050;BME280;42935;50.966;16.992;2023-06-22T10:19:55;101796.08;;;29.31;61.51
57050;BME280;42935;50.966;16.992;2023-06-22T10:23:12;101795.36;;;28.71;73.05
57050;BME280;42935;50.966;16.992;2023-06-22T10:26:29;101789.56;;;29.22;68.76
57050;BME280;42935;50.966;16.992;2023-06-22T10:29:48;101774.54;;;29.46;63.45
57050;BME280;42935;50.966;16.992;2023-06-22T10:33:10;101769.98;;;29.66;68.87
57050;BME280;42935;50.966;16.992;2023-06-22T10:36:26;101760.57;;;29.80;65.47
57050;BME280;42935;50.966;16.992;2023-06-22T10:39:44;101753.59;;;29.78;63.82
57050;BME280;42935;50.966;16.992;2023-06-22T10:43:05;101766.12;;;28.81;66.97
57050;BME280;42935;50.966;16.992;2023-06-22T10:46:26;101766.84;;;28.90;68.17
57050;BME280;42935;50.966;16.992;2023-06-22T10:49:47;101769.88;;;29.51;68.80
57050;BME280;42935;50.966;16.992;2023-06-22T10:53:04;101763.66;;;29.32;61.86
57050;BME280;42935;50.966;16.992;2023-06-22T10:56:29;101752.45;;;29.87;63.42
57050;BME280;42935;50.966;16.992;2023-06-22T10:59:44;101749.65;;;29.79;61.65
57050;BME280;42935;50.966;16.992;2023-06-22T11:03:01;101738.16;;;30.03;65.15
57050;BME280;42935;50.966;16.992;2023-06-22T11:06:20;101752.60;;;30.51;58.76
57050;BME280;42935;50.966;16.992;2023-06-22T11:09:37;101742.06;;;31.42;56.87
57050;BME280;42935;50.966;16.992;2023-06-22T11:12:55;101752.23;;;31.39;55.05
57050;BME280;42935;50.966;16.992;2023-06-22T11:16:17;101747.80;;;31.25;54.90
57050;BME280;42935;50.966;16.992;2023-06-22T11:19:38;101733.37;;;31.59;53.89
57050;BME280;42935;50.966;16.992;2023-06-22T11:22:55;101739.54;;;31.30;55.75
57050;BME280;42935;50.966;16.992;2023-06-22T11:26:10;101737.66;;;30.04;59.16
57050;BME280;42935;50.966;16.992;2023-06-22T11:29:29;101724.16;;;30.95;60.96
57050;BME280;42935;50.966;16.992;2023-06-22T11:32:49;101719.58;;;29.92;60.06
57050;BME280;42935;50.966;16.992;2023-06-22T11:36:05;101719.96;;;30.79;57.77
57050;BME280;42935;50.966;16.992;2023-06-22T11:39:26;101726.69;;;30.19;60.24
57050;BME280;42935;50.966;16.992;2023-06-22T11:42:44;101720.71;;;30.79;55.64
57050;BME280;42935;50.966;16.992;2023-06-22T11:46:02;101728.48;;;30.13;57.59
57050;BME280;42935;50.966;16.992;2023-06-22T11:49:19;101713.31;;;31.16;51.90
57050;BME280;42935;50.966;16.992;2023-06-22T11:52:36;101725.91;;;30.33;51.91
57050;BME280;42935;50.966;16.992;2023-06-22T11:55:56;101722.25;;;30.46;54.20
57050;BME280;42935;50.966;16.992;2023-06-22T11:59:10;101715.37;;;30.71;53.30
57050;BME280;42935;50.966;16.992;2023-06-22T12:02:24;101699.54;;;31.43;52.15
57050;BME280;42935;50.966;16.992;2023-06-22T12:05:42;101700.42;;;31.61;58.14
57050;BME280;42935;50.966;16.992;2023-06-22T12:08:59;101694.08;;;31.10;54.31
57050;BME280;42935;50.966;16.992;2023-06-22T12:12:18;101688.32;;;31.43;53.41
57050;BME280;42935;50.966;16.992;2023-06-22T12:15:35;101690.95;;;30.80;56.75
57050;BME280;42935;50.966;16.992;2023-06-22T12:18:52;101688.41;;;29.92;58.62
57050;BME280;42935;50.966;16.992;2023-06-22T12:22:07;101678.31;;;30.00;59.33
57050;BME280;42935;50.966;16.992;2023-06-22T12:25:24;101667.85;;;30.59;57.06
57050;BME280;42935;50.966;16.992;2023-06-22T12:28:42;101679.30;;;31.05;56.55
57050;BME280;42935;50.966;16.992;2023-06-22T12:31:59;101674.23;;;31.83;54.32
57050;BME280;42935;50.966;16.992;2023-06-22T12:35:17;101640.02;;;31.39;54.39
57050;BME280;42935;50.966;16.992;2023-06-22T12:38:36;101671.28;;;31.06;55.89
57050;BME280;42935;50.966;16.992;2023-06-22T12:41:54;101664.14;;;30.80;51.49
57050;BME280;42935;50.966;16.992;2023-06-22T12:45:14;101649.83;;;32.06;51.11
57050;BME280;42935;50.966;16.992;2023-06-22T12:48:28;101652.90;;;32.63;49.81
57050;BME280;42935;50.966;16.992;2023-06-22T12:51:45;101660.87;;;30.41;56.36
57050;BME280;42935;50.966;16.992;2023-06-22T12:55:02;101649.97;;;31.66;55.99
57050;BME280;42935;50.966;16.992;2023-06-22T12:58:19;101647.34;;;31.69;53.98
57050;BME280;42935;50.966;16.992;2023-06-22T13:01:32;101650.25;;;31.65;52.00
57050;BME280;42935;50.966;16.992;2023-06-22T13:04:54;101643.67;;;31.02;53.98
57050;BME280;42935;50.966;16.992;2023-06-22T13:08:06;101637.67;;;31.03;54.93
57050;BME280;42935;50.966;16.992;2023-06-22T13:11:21;101645.20;;;31.73;51.75
57050;BME280;42935;50.966;16.992;2023-06-22T13:14:38;101641.33;;;32.00;50.11
57050;BME280;42935;50.966;16.992;2023-06-22T13:17:57;101647.56;;;31.03;53.29
57050;BME280;42935;50.966;16.992;2023-06-22T13:21:15;101632.69;;;30.88;55.16
57050;BME280;42935;50.966;16.992;2023-06-22T13:24:32;101634.36;;;31.98;48.27
57050;BME280;42935;50.966;16.992;2023-06-22T13:28:23;101629.30;;;33.04;48.60
57050;BME280;42935;50.966;16.992;2023-06-22T13:32:10;101636.52;;;32.33;53.86
57050;BME280;42935;50.966;16.992;2023-06-22T13:35:26;101624.88;;;32.56;51.06
57050;BME280;42935;50.966;16.992;2023-06-22T13:38:47;101619.73;;;32.03;53.43
57050;BME280;42935;50.966;16.992;2023-06-22T13:42:02;101610.26;;;32.18;53.31
57050;BME280;42935;50.966;16.992;2023-06-22T13:45:19;101618.97;;;33.44;51.29
57050;BME280;42935;50.966;16.992;2023-06-22T13:48:35;101618.09;;;32.92;52.12
57050;BME280;42935;50.966;16.992;2023-06-22T14:06:25;101610.99;;;33.00;50.46
57050;BME280;42935;50.966;16.992;2023-06-22T14:10:51;101607.66;;;32.75;50.53
57050;BME280;42935;50.966;16.992;2023-06-22T14:14:11;101606.46;;;33.04;51.63
57050;BME280;42935;50.966;16.992;2023-06-22T14:17:30;101592.82;;;34.43;47.19
57050;BME280;42935;50.966;16.992;2023-06-22T14:20:45;101580.49;;;34.78;45.22
57050;BME280;42935;50.966;16.992;2023-06-22T14:24:07;101577.34;;;34.90;46.31
57050;BME280;42935;50.966;16.992;2023-06-22T14:27:54;101572.98;;;34.87;47.28
57050;BME280;42935;50.966;16.992;2023-06-22T14:31:08;101576.96;;;33.90;48.56
57050;BME280;42935;50.966;16.992;2023-06-22T14:34:27;101546.95;;;33.78;47.66
57050;BME280;42935;50.966;16.992;2023-06-22T14:37:40;101571.86;;;34.63;45.72
57050;BME280;42935;50.966;16.992;2023-06-22T14:41:04;101572.90;;;34.65;44.42
57050;BME280;42935;50.966;16.992;2023-06-22T14:44:24;101564.26;;;34.87;44.43
57050;BME280;42935;50.966;16.992;2023-06-22T14:47:40;101554.94;;;36.32;41.87
57050;BME280;42935;50.966;16.992;2023-06-22T14:50:57;101546.79;;;34.85;43.87
57050;BME280;42935;50.966;16.992;2023-06-22T14:54:18;101546.88;;;35.18;45.33
57050;BME280;42935;50.966;16.992;2023-06-22T14:57:35;101543.68;;;35.40;43.07
57050;BME280;42935;50.966;16.992;2023-06-22T15:00:53;101541.21;;;35.64;41.80
57050;BME280;42935;50.966;16.992;2023-06-22T15:04:10;101523.07;;;35.74;43.75
57050;BME280;42935;50.966;16.992;2023-06-22T15:07:28;101526.41;;;34.12;45.24
57050;BME280;42935;50.966;16.992;2023-06-22T15:10:47;101531.06;;;34.15;45.62
57050;BME280;42935;50.966;16.992;2023-06-22T15:14:01;101530.29;;;34.97;43.53
57050;BME280;42935;50.966;16.992;2023-06-22T15:17:14;101519.17;;;35.11;43.56
57050;BME280;42935;50.966;16.992;2023-06-22T15:20:35;101511.23;;;35.73;43.52
57050;BME280;42935;50.966;16.992;2023-06-22T15:23:51;101518.75;;;35.58;43.36
57050;BME280;42935;50.966;16.992;2023-06-22T15:27:34;101518.09;;;34.35;45.70
57050;BME280;42935;50.966;16.992;2023-06-22T15:30:50;101518.65;;;34.98;46.92
57050;BME280;42935;50.966;16.992;2023-06-22T15:34:06;101509.45;;;36.06;44.03
57050;BME280;42935;50.966;16.992;2023-06-22T15:37:20;101496.59;;;35.76;44.87
57050;BME280;42935;50.966;16.992;2023-06-22T15:40:37;101488.73;;;35.36;45.64
57050;BME280;42935;50.966;16.992;2023-06-22T15:43:56;101504.53;;;35.11;44.47
57050;BME280;42935;50.966;16.992;2023-06-22T15:47:17;101492.66;;;35.02;45.51
57050;BME280;42935;50.966;16.992;2023-06-22T15:50:34;101496.26;;;34.74;45.24
57050;BME280;42935;50.966;16.992;2023-06-22T15:53:54;101498.73;;;33.60;46.93
57050;BME280;42935;50.966;16.992;2023-06-22T15:57:12;101488.92;;;34.97;45.33
57050;BME280;42935;50.966;16.992;2023-06-22T16:00:27;101485.88;;;35.30;44.98
57050;BME280;42935;50.966;16.992;2023-06-22T16:03:39;101491.35;;;34.57;44.94
57050;BME280;42935;50.966;16.992;2023-06-22T16:07:01;101479.11;;;33.85;47.25
57050;BME280;42935;50.966;16.992;2023-06-22T16:10:19;101479.54;;;34.01;46.11
57050;BME280;42935;50.966;16.992;2023-06-22T16:13:36;101461.09;;;34.21;46.81
57050;BME280;42935;50.966;16.992;2023-06-22T16:16:58;101459.56;;;34.91;45.58
57050;BME280;42935;50.966;16.992;2023-06-22T16:20:16;101467.63;;;33.31;47.65
57050;BME280;42935;50.966;16.992;2023-06-22T16:23:36;101462.86;;;33.36;46.78
57050;BME280;42935;50.966;16.992;2023-06-22T16:26:56;101461.47;;;33.50;46.94
57050;BME280;42935;50.966;16.992;2023-06-22T16:30:13;101458.51;;;33.65;47.68
57050;BME280;42935;50.966;16.992;2023-06-22T16:33:26;101458.57;;;33.16;49.34
57050;BME280;42935;50.966;16.992;2023-06-22T16:36:45;101449.22;;;33.09;47.94
57050;BME280;42935;50.966;16.992;2023-06-22T16:40:08;101451.55;;;32.78;49.06
57050;BME280;42935;50.966;16.992;2023-06-22T16:43:26;101450.06;;;31.83;52.82
57050;BME280;42935;50.966;16.992;2023-06-22T16:46:44;101455.52;;;31.96;52.59
57050;BME280;42935;50.966;16.992;2023-06-22T16:49:58;101453.52;;;32.41;52.71
57050;BME280;42935;50.966;16.992;2023-06-22T16:53:56;101452.40;;;32.64;52.97
57050;BME280;42935;50.966;16.992;2023-06-22T16:57:14;101440.07;;;32.64;51.31
57050;BME280;42935;50.966;16.992;2023-06-22T17:00:26;101432.95;;;32.69;50.47
57050;BME280;42935;50.966;16.992;2023-06-22T17:03:51;101430.36;;;31.67;52.67
57050;BME280;42935;50.966;16.992;2023-06-22T17:07:11;101422.12;;;31.48;51.15
57050;BME280;42935;50.966;16.992;2023-06-22T17:10:32;101413.34;;;32.50;51.94
57050;BME280;42935;50.966;16.992;2023-06-22T17:13:52;101408.52;;;32.01;53.66
57050;BME280;42935;50.966;16.992;2023-06-22T17:17:05;101403.62;;;32.13;52.09
57050;BME280;42935;50.966;16.992;2023-06-22T17:20:18;101400.24;;;32.20;53.12
57050;BME280;42935;50.966;16.992;2023-06-22T17:23:31;101396.98;;;31.92;53.18
57050;BME280;42935;50.966;16.992;2023-06-22T17:26:52;101398.18;;;31.29;55.78
57050;BME280;42935;50.966;16.992;2023-06-22T17:30:11;101399.80;;;31.91;53.97
57050;BME280;42935;50.966;16.992;2023-06-22T17:33:37;101391.04;;;31.43;54.75